sensor_id;sensor_type;location;lat;lon;timestamp;temperature;humidity
7576;DHT22;3829;50.798;4.358;2023-06-10T00:00:12;22.20;99.90
7576;DHT22;3829;50.798;4.358;2023-06-10T00:02:40;22.20;99.90
7576;DHT22;3829;50.798;4.358;2023-06-10T00:05:06;22.20;99.90
7576;DHT22;3829;50.798;4.358;2023-06-10T00:07:33;22.10;99.90
7576;DHT22;3829;50.798;4.358;2023-06-10T00:09:59;22.00;99.90
7576;DHT22;3829;50.798;4.358;2023-06-10T00:12:25;22.00;99.90
7576;DHT22;3829;50.798;4.358;2023-06-10T00:14:50;22.00;99.90
7576;DHT22;3829;50.798;4.358;2023-06-10T00:17:18;21.90;99.90
7576;DHT22;3829;50.798;4.358;2023-06-10T00:19:44;21.90;99.90
7576;DHT22;3829;50.798;4.358;2023-06-10T00:22:12;21.70;99.90
7576;DHT22;3829;50.798;4.358;2023-06-10T00:24:37;21.70;99.90
7576;DHT22;3829;50.798;4.358;2023-06-10T00:27:03;21.80;99.90
7576;DHT22;3829;50.798;4.358;2023-06-10T00:29:29;21.60;99.90
7576;DHT22;3829;50.798;4.358;2023-06-10T00:31:54;21.70;99.90
7576;DHT22;3829;50.798;4.358;2023-06-10T00:34:23;21.60;99.90
7576;DHT22;3829;50.798;4.358;2023-06-10T00:36:48;21.50;99.90
7576;DHT22;3829;50.798;4.358;2023-06-10T00:39:14;21.50;99.90
7576;DHT22;3829;50.798;4.358;2023-06-10T00:41:39;21.50;99.90
7576;DHT22;3829;50.798;4.358;2023-06-10T00:44:05;21.60;99.90
7576;DHT22;3829;50.798;4.358;2023-06-10T00:46:31;21.50;99.90
7576;DHT22;3829;50.798;4.358;2023-06-10T00:48:58;21.50;99.90
7576;DHT22;3829;50.798;4.358;2023-06-10T00:51:23;21.40;99.90
7576;DHT22;3829;50.798;4.358;2023-06-10T00:53:51;21.40;99.90
7576;DHT22;3829;50.798;4.358;2023-06-10T00:56:17;21.40;99.90
7576;DHT22;3829;50.798;4.358;2023-06-10T00:58:43;21.40;99.90
7576;DHT22;3829;50.798;4.358;2023-06-10T01:01:09;21.40;99.90
7576;DHT22;3829;50.798;4.358;2023-06-10T01:03:36;21.30;99.90
7576;DHT22;3829;50.798;4.358;2023-06-10T01:08:52;21.30;99.90
7576;DHT22;3829;50.798;4.358;2023-06-10T01:11:23;21.20;99.90
7576;DHT22;3829;50.798;4.358;2023-06-10T01:13:50;21.30;99.90
7576;DHT22;3829;50.798;4.358;2023-06-10T01:16:19;21.30;99.90
7576;DHT22;3829;50.798;4.358;2023-06-10T01:18:44;21.20;99.90
7576;DHT22;3829;50.798;4.358;2023-06-10T01:21:20;21.20;99.90
7576;DHT22;3829;50.798;4.358;2023-06-10T01:23:46;21.20;99.90
7576;DHT22;3829;50.798;4.358;2023-06-10T01:26:13;21.20;99.90
7576;DHT22;3829;50.798;4.358;2023-06-10T01:28:49;21.20;99.90
7576;DHT22;3829;50.798;4.358;2023-06-10T01:31:31;21.10;99.90
7576;DHT22;3829;50.798;4.358;2023-06-10T01:34:00;21.10;99.90
7576;DHT22;3829;50.798;4.358;2023-06-10T01:36:28;21.20;99.90
7576;DHT22;3829;50.798;4.358;2023-06-10T01:38:55;21.10;99.90
7576;DHT22;3829;50.798;4.358;2023-06-10T01:41:22;21.10;99.90
7576;DHT22;3829;50.798;4.358;2023-06-10T01:43:48;21.10;99.90
7576;DHT22;3829;50.798;4.358;2023-06-10T01:46:14;21.10;99.90
7576;DHT22;3829;50.798;4.358;2023-06-10T01:48:42;21.00;99.90
7576;DHT22;3829;50.798;4.358;2023-06-10T01:51:07;21.00;99.90
7576;DHT22;3829;50.798;4.358;2023-06-10T01:53:33;21.00;99.90
7576;DHT22;3829;50.798;4.358;2023-06-10T01:55:58;21.00;99.90
7576;DHT22;3829;50.798;4.358;2023-06-10T01:58:24;20.80;99.90
7576;DHT22;3829;50.798;4.358;2023-06-10T02:00:50;20.90;99.90
7576;DHT22;3829;50.798;4.358;2023-06-10T02:03:15;20.90;99.90
7576;DHT22;3829;50.798;4.358;2023-06-10T02:05:41;21.00;99.90
7576;DHT22;3829;50.798;4.358;2023-06-10T02:08:07;20.80;99.90
7576;DHT22;3829;50.798;4.358;2023-06-10T02:10:32;20.80;99.90
7576;DHT22;3829;50.798;4.358;2023-06-10T02:12:58;20.80;99.90
7576;DHT22;3829;50.798;4.358;2023-06-10T02:15:23;20.80;99.90
7576;DHT22;3829;50.798;4.358;2023-06-10T02:17:50;20.80;99.90
7576;DHT22;3829;50.798;4.358;2023-06-10T02:20:16;20.70;99.90
7576;DHT22;3829;50.798;4.358;2023-06-10T02:22:41;20.60;99.90
7576;DHT22;3829;50.798;4.358;2023-06-10T02:25:07;20.70;99.90
7576;DHT22;3829;50.798;4.358;2023-06-10T02:27:33;20.50;99.90
7576;DHT22;3829;50.798;4.358;2023-06-10T02:29:59;20.60;99.90
7576;DHT22;3829;50.798;4.358;2023-06-10T02:32:24;20.60;99.90
7576;DHT22;3829;50.798;4.358;2023-06-10T02:34:50;20.60;99.90
7576;DHT22;3829;50.798;4.358;2023-06-10T02:37:16;20.60;99.90
7576;DHT22;3829;50.798;4.358;2023-06-10T02:39:42;20.50;99.90
7576;DHT22;3829;50.798;4.358;2023-06-10T02:42:07;20.50;99.90
7576;DHT22;3829;50.798;4.358;2023-06-10T02:44:33;20.60;99.90
7576;DHT22;3829;50.798;4.358;2023-06-10T02:46:59;20.50;99.90
7576;DHT22;3829;50.798;4.358;2023-06-10T02:49:25;20.50;99.90
7576;DHT22;3829;50.798;4.358;2023-06-10T02:51:53;20.50;99.90
7576;DHT22;3829;50.798;4.358;2023-06-10T02:54:20;20.60;99.90
7576;DHT22;3829;50.798;4.358;2023-06-10T02:56:46;20.50;99.90
7576;DHT22;3829;50.798;4.358;2023-06-10T02:59:13;20.40;99.90
7576;DHT22;3829;50.798;4.358;2023-06-10T03:01:39;20.40;99.90
7576;DHT22;3829;50.798;4.358;2023-06-10T03:04:05;20.40;99.90
7576;DHT22;3829;50.798;4.358;2023-06-10T03:06:31;20.40;99.90
7576;DHT22;3829;50.798;4.358;2023-06-10T03:08:59;20.30;99.90
7576;DHT22;3829;50.798;4.358;2023-06-10T03:11:25;20.20;99.90
7576;DHT22;3829;50.798;4.358;2023-06-10T03:13:51;20.30;99.90
7576;DHT22;3829;50.798;4.358;2023-06-10T03:16:19;20.30;99.90
7576;DHT22;3829;50.798;4.358;2023-06-10T03:18:44;20.30;99.90
7576;DHT22;3829;50.798;4.358;2023-06-10T03:21:10;20.30;99.90
7576;DHT22;3829;50.798;4.358;2023-06-10T03:23:36;20.10;99.90
7576;DHT22;3829;50.798;4.358;2023-06-10T03:26:02;20.10;99.90
7576;DHT22;3829;50.798;4.358;2023-06-10T03:28:30;20.10;99.90
7576;DHT22;3829;50.798;4.358;2023-06-10T03:30:56;20.20;99.90
7576;DHT22;3829;50.798;4.358;2023-06-10T03:33:21;20.00;99.90
7576;DHT22;3829;50.798;4.358;2023-06-10T03:35:47;20.10;99.90
7576;DHT22;3829;50.798;4.358;2023-06-10T03:38:13;20.00;99.90
7576;DHT22;3829;50.798;4.358;2023-06-10T03:40:39;20.00;99.90
7576;DHT22;3829;50.798;4.358;2023-06-10T03:43:04;20.00;99.90
7576;DHT22;3829;50.798;4.358;2023-06-10T03:45:30;20.00;99.90
7576;DHT22;3829;50.798;4.358;2023-06-10T03:47:56;19.90;99.90
7576;DHT22;3829;50.798;4.358;2023-06-10T03:50:21;19.90;99.90
7576;DHT22;3829;50.798;4.358;2023-06-10T03:52:49;19.90;99.90
7576;DHT22;3829;50.798;4.358;2023-06-10T03:55:14;20.00;99.90
7576;DHT22;3829;50.798;4.358;2023-06-10T03:57:42;19.80;99.90
7576;DHT22;3829;50.798;4.358;2023-06-10T04:00:09;19.90;99.90
7576;DHT22;3829;50.798;4.358;2023-06-10T04:02:37;19.90;99.90
7576;DHT22;3829;50.798;4.358;2023-06-10T04:05:07;19.80;99.90
7576;DHT22;3829;50.798;4.358;2023-06-10T04:07:32;19.90;99.90
7576;DHT22;3829;50.798;4.358;2023-06-10T04:09:59;19.80;99.90
7576;DHT22;3829;50.798;4.358;2023-06-10T04:12:25;19.90;99.90
7576;DHT22;3829;50.798;4.358;2023-06-10T04:14:50;19.80;99.90
7576;DHT22;3829;50.798;4.358;2023-06-10T04:17:17;19.80;99.90
7576;DHT22;3829;50.798;4.358;2023-06-10T04:19:43;19.90;99.90
7576;DHT22;3829;50.798;4.358;2023-06-10T04:22:09;19.90;99.90
7576;DHT22;3829;50.798;4.358;2023-06-10T04:24:34;20.00;99.90
7576;DHT22;3829;50.798;4.358;2023-06-10T04:27:00;20.00;99.90
7576;DHT22;3829;50.798;4.358;2023-06-10T04:29:26;19.90;99.90
7576;DHT22;3829;50.798;4.358;2023-06-10T04:31:52;20.00;99.90
7576;DHT22;3829;50.798;4.358;2023-06-10T04:34:17;20.00;99.90
7576;DHT22;3829;50.798;4.358;2023-06-10T04:36:43;19.90;99.90
7576;DHT22;3829;50.798;4.358;2023-06-10T04:39:08;19.90;99.90
7576;DHT22;3829;50.798;4.358;2023-06-10T04:41:34;19.90;99.90
7576;DHT22;3829;50.798;4.358;2023-06-10T04:44:00;20.00;99.90
7576;DHT22;3829;50.798;4.358;2023-06-10T04:46:25;20.00;99.90
7576;DHT22;3829;50.798;4.358;2023-06-10T04:48:51;20.00;99.90
7576;DHT22;3829;50.798;4.358;2023-06-10T04:51:17;20.10;99.90
7576;DHT22;3829;50.798;4.358;2023-06-10T04:53:42;20.10;99.90
7576;DHT22;3829;50.798;4.358;2023-06-10T04:56:08;20.00;99.90
7576;DHT22;3829;50.798;4.358;2023-06-10T04:58:34;20.00;99.90
7576;DHT22;3829;50.798;4.358;2023-06-10T05:00:59;20.20;99.90
7576;DHT22;3829;50.798;4.358;2023-06-10T05:03:26;20.20;99.90
7576;DHT22;3829;50.798;4.358;2023-06-10T05:05:52;20.30;99.90
7576;DHT22;3829;50.798;4.358;2023-06-10T05:08:18;20.20;99.90
7576;DHT22;3829;50.798;4.358;2023-06-10T05:10:43;20.20;99.90
7576;DHT22;3829;50.798;4.358;2023-06-10T05:13:09;20.30;99.90
7576;DHT22;3829;50.798;4.358;2023-06-10T05:15:35;20.30;99.90
7576;DHT22;3829;50.798;4.358;2023-06-10T05:18:00;20.40;99.90
7576;DHT22;3829;50.798;4.358;2023-06-10T05:20:27;20.40;99.90
7576;DHT22;3829;50.798;4.358;2023-06-10T05:22:54;20.50;99.90
7576;DHT22;3829;50.798;4.358;2023-06-10T05:25:19;20.50;99.90
7576;DHT22;3829;50.798;4.358;2023-06-10T05:27:45;20.60;99.90
7576;DHT22;3829;50.798;4.358;2023-06-10T05:30:11;20.70;99.90
7576;DHT22;3829;50.798;4.358;2023-06-10T05:32:36;20.80;99.90
7576;DHT22;3829;50.798;4.358;2023-06-10T05:35:02;20.60;99.90
7576;DHT22;3829;50.798;4.358;2023-06-10T05:37:29;20.80;99.90
7576;DHT22;3829;50.798;4.358;2023-06-10T05:39:54;20.90;99.90
7576;DHT22;3829;50.798;4.358;2023-06-10T05:42:20;20.80;99.90
7576;DHT22;3829;50.798;4.358;2023-06-10T05:44:46;21.00;99.90
7576;DHT22;3829;50.798;4.358;2023-06-10T05:47:11;21.10;99.90
7576;DHT22;3829;50.798;4.358;2023-06-10T05:49:37;21.10;99.90
7576;DHT22;3829;50.798;4.358;2023-06-10T05:52:03;21.20;99.90
7576;DHT22;3829;50.798;4.358;2023-06-10T05:54:28;21.20;99.90
7576;DHT22;3829;50.798;4.358;2023-06-10T05:56:54;21.30;99.90
7576;DHT22;3829;50.798;4.358;2023-06-10T05:59:19;21.30;99.90
7576;DHT22;3829;50.798;4.358;2023-06-10T06:01:45;21.40;99.90
7576;DHT22;3829;50.798;4.358;2023-06-10T06:04:11;21.50;99.90
7576;DHT22;3829;50.798;4.358;2023-06-10T06:06:39;21.60;99.90
7576;DHT22;3829;50.798;4.358;2023-06-10T06:09:05;21.60;99.90
7576;DHT22;3829;50.798;4.358;2023-06-10T06:11:31;21.80;99.90
7576;DHT22;3829;50.798;4.358;2023-06-10T06:13:56;21.80;99.90
7576;DHT22;3829;50.798;4.358;2023-06-10T06:16:23;21.90;99.90
7576;DHT22;3829;50.798;4.358;2023-06-10T06:18:48;22.00;99.90
7576;DHT22;3829;50.798;4.358;2023-06-10T06:21:14;22.00;99.90
7576;DHT22;3829;50.798;4.358;2023-06-10T06:23:39;22.10;99.90
7576;DHT22;3829;50.798;4.358;2023-06-10T06:26:05;22.20;99.90
7576;DHT22;3829;50.798;4.358;2023-06-10T06:28:30;22.10;99.90
7576;DHT22;3829;50.798;4.358;2023-06-10T06:30:57;22.30;99.90
7576;DHT22;3829;50.798;4.358;2023-06-10T06:33:22;22.30;99.90
7576;DHT22;3829;50.798;4.358;2023-06-10T06:35:48;22.40;99.90
7576;DHT22;3829;50.798;4.358;2023-06-10T06:38:14;22.50;99.90
7576;DHT22;3829;50.798;4.358;2023-06-10T06:40:40;22.70;99.90
7576;DHT22;3829;50.798;4.358;2023-06-10T06:43:05;22.80;99.90
7576;DHT22;3829;50.798;4.358;2023-06-10T06:45:31;22.80;99.90
7576;DHT22;3829;50.798;4.358;2023-06-10T06:47:59;22.90;99.90
7576;DHT22;3829;50.798;4.358;2023-06-10T06:50:25;22.80;99.90
7576;DHT22;3829;50.798;4.358;2023-06-10T06:52:51;22.80;99.90
7576;DHT22;3829;50.798;4.358;2023-06-10T06:55:16;22.90;99.90
7576;DHT22;3829;50.798;4.358;2023-06-10T06:57:42;23.10;99.90
7576;DHT22;3829;50.798;4.358;2023-06-10T07:00:08;23.10;99.90
7576;DHT22;3829;50.798;4.358;2023-06-10T07:02:34;23.40;99.90
7576;DHT22;3829;50.798;4.358;2023-06-10T07:05:00;23.50;99.90
7576;DHT22;3829;50.798;4.358;2023-06-10T07:07:26;23.60;99.90
7576;DHT22;3829;50.798;4.358;2023-06-10T07:09:52;23.70;99.90
7576;DHT22;3829;50.798;4.358;2023-06-10T07:12:17;23.80;99.90
7576;DHT22;3829;50.798;4.358;2023-06-10T07:14:44;23.90;99.90
7576;DHT22;3829;50.798;4.358;2023-06-10T07:17:09;24.10;99.90
7576;DHT22;3829;50.798;4.358;2023-06-10T07:19:35;24.10;99.90
7576;DHT22;3829;50.798;4.358;2023-06-10T07:22:01;24.30;99.90
7576;DHT22;3829;50.798;4.358;2023-06-10T07:24:26;24.40;99.90
7576;DHT22;3829;50.798;4.358;2023-06-10T07:26:52;24.40;99.90
7576;DHT22;3829;50.798;4.358;2023-06-10T07:29:17;24.60;99.90
7576;DHT22;3829;50.798;4.358;2023-06-10T07:31:43;24.60;99.90
7576;DHT22;3829;50.798;4.358;2023-06-10T07:34:08;24.70;99.90
7576;DHT22;3829;50.798;4.358;2023-06-10T07:36:34;24.80;99.90
7576;DHT22;3829;50.798;4.358;2023-06-10T07:38:59;24.90;99.90
7576;DHT22;3829;50.798;4.358;2023-06-10T07:41:25;25.00;99.90
7576;DHT22;3829;50.798;4.358;2023-06-10T07:43:52;25.10;99.90
7576;DHT22;3829;50.798;4.358;2023-06-10T07:46:21;25.00;99.90
7576;DHT22;3829;50.798;4.358;2023-06-10T07:48:47;25.00;99.90
7576;DHT22;3829;50.798;4.358;2023-06-10T07:51:12;25.10;99.90
7576;DHT22;3829;50.798;4.358;2023-06-10T07:53:38;25.20;99.90
7576;DHT22;3829;50.798;4.358;2023-06-10T07:56:04;25.00;99.90
7576;DHT22;3829;50.798;4.358;2023-06-10T07:58:29;25.20;99.90
7576;DHT22;3829;50.798;4.358;2023-06-10T08:00:55;25.30;99.90
7576;DHT22;3829;50.798;4.358;2023-06-10T08:03:20;25.40;99.90
7576;DHT22;3829;50.798;4.358;2023-06-10T08:05:46;25.50;99.90
7576;DHT22;3829;50.798;4.358;2023-06-10T08:08:13;25.40;99.90
7576;DHT22;3829;50.798;4.358;2023-06-10T08:10:38;25.50;99.90
7576;DHT22;3829;50.798;4.358;2023-06-10T08:13:04;25.60;99.90
7576;DHT22;3829;50.798;4.358;2023-06-10T08:15:30;25.70;99.90
7576;DHT22;3829;50.798;4.358;2023-06-10T08:17:55;26.00;99.90
7576;DHT22;3829;50.798;4.358;2023-06-10T08:20:22;26.10;99.90
7576;DHT22;3829;50.798;4.358;2023-06-10T08:22:47;26.00;99.90
7576;DHT22;3829;50.798;4.358;2023-06-10T08:25:13;26.10;99.90
7576;DHT22;3829;50.798;4.358;2023-06-10T08:27:39;26.20;99.90
7576;DHT22;3829;50.798;4.358;2023-06-10T08:30:05;26.30;99.90
7576;DHT22;3829;50.798;4.358;2023-06-10T08:32:31;26.40;99.90
7576;DHT22;3829;50.798;4.358;2023-06-10T08:34:57;26.40;99.90
7576;DHT22;3829;50.798;4.358;2023-06-10T08:37:22;26.50;99.90
7576;DHT22;3829;50.798;4.358;2023-06-10T08:39:48;26.60;99.90
7576;DHT22;3829;50.798;4.358;2023-06-10T08:42:23;26.50;99.90
7576;DHT22;3829;50.798;4.358;2023-06-10T08:44:54;26.60;99.90
7576;DHT22;3829;50.798;4.358;2023-06-10T08:47:23;26.70;99.90
7576;DHT22;3829;50.798;4.358;2023-06-10T08:49:48;26.70;99.90
7576;DHT22;3829;50.798;4.358;2023-06-10T08:52:16;27.00;99.90
7576;DHT22;3829;50.798;4.358;2023-06-10T08:54:51;27.10;99.90
7576;DHT22;3829;50.798;4.358;2023-06-10T08:57:17;27.30;99.90
7576;DHT22;3829;50.798;4.358;2023-06-10T08:59:46;27.60;99.90
7576;DHT22;3829;50.798;4.358;2023-06-10T09:02:11;27.60;99.90
7576;DHT22;3829;50.798;4.358;2023-06-10T09:04:39;27.70;99.90
7576;DHT22;3829;50.798;4.358;2023-06-10T09:07:05;27.80;99.90
7576;DHT22;3829;50.798;4.358;2023-06-10T09:09:32;27.70;99.90
7576;DHT22;3829;50.798;4.358;2023-06-10T09:12:00;27.60;99.90
7576;DHT22;3829;50.798;4.358;2023-06-10T09:14:26;27.60;99.90
7576;DHT22;3829;50.798;4.358;2023-06-10T09:16:52;27.70;99.90
7576;DHT22;3829;50.798;4.358;2023-06-10T09:19:17;27.80;99.90
7576;DHT22;3829;50.798;4.358;2023-06-10T09:21:43;27.90;99.90
7576;DHT22;3829;50.798;4.358;2023-06-10T09:24:09;28.00;99.90
7576;DHT22;3829;50.798;4.358;2023-06-10T09:26:34;28.10;99.90
7576;DHT22;3829;50.798;4.358;2023-06-10T09:29:07;28.20;99.90
7576;DHT22;3829;50.798;4.358;2023-06-10T09:31:39;28.20;99.90
7576;DHT22;3829;50.798;4.358;2023-06-10T09:34:07;28.30;99.90
7576;DHT22;3829;50.798;4.358;2023-06-10T09:36:34;28.40;99.90
7576;DHT22;3829;50.798;4.358;2023-06-10T09:39:00;28.50;99.90
7576;DHT22;3829;50.798;4.358;2023-06-10T09:41:40;28.40;99.90
7576;DHT22;3829;50.798;4.358;2023-06-10T09:44:20;28.50;99.90
7576;DHT22;3829;50.798;4.358;2023-06-10T09:46:47;28.60;99.90
7576;DHT22;3829;50.798;4.358;2023-06-10T09:49:13;28.70;99.90
7576;DHT22;3829;50.798;4.358;2023-06-10T09:51:54;28.90;99.90
7576;DHT22;3829;50.798;4.358;2023-06-10T09:54:21;29.20;99.90
7576;DHT22;3829;50.798;4.358;2023-06-10T09:56:48;29.20;99.90
7576;DHT22;3829;50.798;4.358;2023-06-10T09:59:14;29.30;99.90
7576;DHT22;3829;50.798;4.358;2023-06-10T10:01:40;29.30;99.90
7576;DHT22;3829;50.798;4.358;2023-06-10T10:04:06;29.40;99.90
7576;DHT22;3829;50.798;4.358;2023-06-10T10:06:31;29.60;99.90
7576;DHT22;3829;50.798;4.358;2023-06-10T10:08:57;29.70;99.90
7576;DHT22;3829;50.798;4.358;2023-06-10T10:11:23;29.70;99.90
7576;DHT22;3829;50.798;4.358;2023-06-10T10:13:52;29.70;99.90
7576;DHT22;3829;50.798;4.358;2023-06-10T10:16:21;29.80;99.90
7576;DHT22;3829;50.798;4.358;2023-06-10T10:18:54;29.90;99.90
7576;DHT22;3829;50.798;4.358;2023-06-10T10:21:23;30.00;99.90
7576;DHT22;3829;50.798;4.358;2023-06-10T10:24:01;29.90;99.90
7576;DHT22;3829;50.798;4.358;2023-06-10T10:26:29;30.10;99.90
7576;DHT22;3829;50.798;4.358;2023-06-10T10:29:11;30.00;99.90
7576;DHT22;3829;50.798;4.358;2023-06-10T10:31:41;30.10;99.90
7576;DHT22;3829;50.798;4.358;2023-06-10T10:34:13;30.20;99.90
7576;DHT22;3829;50.798;4.358;2023-06-10T10:36:41;30.20;99.90
7576;DHT22;3829;50.798;4.358;2023-06-10T10:39:07;30.20;99.90
7576;DHT22;3829;50.798;4.358;2023-06-10T10:41:33;30.20;99.90
7576;DHT22;3829;50.798;4.358;2023-06-10T10:43:59;30.20;99.90
7576;DHT22;3829;50.798;4.358;2023-06-10T10:46:25;30.40;99.90
7576;DHT22;3829;50.798;4.358;2023-06-10T10:48:53;30.40;99.90
7576;DHT22;3829;50.798;4.358;2023-06-10T10:51:20;30.50;99.90
7576;DHT22;3829;50.798;4.358;2023-06-10T10:54:13;30.50;99.90
7576;DHT22;3829;50.798;4.358;2023-06-10T10:56:39;30.70;99.90
7576;DHT22;3829;50.798;4.358;2023-06-10T10:59:05;30.90;99.90
7576;DHT22;3829;50.798;4.358;2023-06-10T11:01:42;30.80;99.90
7576;DHT22;3829;50.798;4.358;2023-06-10T11:04:10;30.90;99.90
7576;DHT22;3829;50.798;4.358;2023-06-10T11:06:36;31.00;99.10
7576;DHT22;3829;50.798;4.358;2023-06-10T11:09:25;31.00;98.60
7576;DHT22;3829;50.798;4.358;2023-06-10T11:11:51;30.80;99.10
7576;DHT22;3829;50.798;4.358;2023-06-10T11:14:27;30.80;97.60
7576;DHT22;3829;50.798;4.358;2023-06-10T11:16:56;30.60;97.60
7576;DHT22;3829;50.798;4.358;2023-06-10T11:19:33;30.80;98.40
7576;DHT22;3829;50.798;4.358;2023-06-10T11:22:01;30.80;98.20
7576;DHT22;3829;50.798;4.358;2023-06-10T11:24:29;30.80;98.60
7576;DHT22;3829;50.798;4.358;2023-06-10T11:26:54;31.10;97.60
7576;DHT22;3829;50.798;4.358;2023-06-10T11:29:20;31.10;97.80
7576;DHT22;3829;50.798;4.358;2023-06-10T11:31:50;30.80;98.40
7576;DHT22;3829;50.798;4.358;2023-06-10T11:34:21;31.10;97.90
7576;DHT22;3829;50.798;4.358;2023-06-10T11:36:49;31.10;97.20
7576;DHT22;3829;50.798;4.358;2023-06-10T11:39:14;31.20;97.20
7576;DHT22;3829;50.798;4.358;2023-06-10T11:41:40;31.40;96.20
7576;DHT22;3829;50.798;4.358;2023-06-10T11:44:10;31.30;95.40
7576;DHT22;3829;50.798;4.358;2023-06-10T11:46:36;31.10;95.70
7576;DHT22;3829;50.798;4.358;2023-06-10T11:49:02;31.00;97.20
7576;DHT22;3829;50.798;4.358;2023-06-10T11:51:31;31.20;97.50
7576;DHT22;3829;50.798;4.358;2023-06-10T11:53:57;31.20;96.30
7576;DHT22;3829;50.798;4.358;2023-06-10T11:56:26;31.40;96.90
7576;DHT22;3829;50.798;4.358;2023-06-10T11:58:54;31.50;94.50
7576;DHT22;3829;50.798;4.358;2023-06-10T12:01:22;31.60;94.30
7576;DHT22;3829;50.798;4.358;2023-06-10T12:03:48;31.40;94.50
7576;DHT22;3829;50.798;4.358;2023-06-10T12:06:13;31.30;95.00
7576;DHT22;3829;50.798;4.358;2023-06-10T12:08:43;31.40;95.10
7576;DHT22;3829;50.798;4.358;2023-06-10T12:11:09;31.60;95.50
7576;DHT22;3829;50.798;4.358;2023-06-10T12:13:34;31.80;94.80
7576;DHT22;3829;50.798;4.358;2023-06-10T12:16:08;31.90;95.10
7576;DHT22;3829;50.798;4.358;2023-06-10T12:18:34;32.30;95.60
7576;DHT22;3829;50.798;4.358;2023-06-10T12:21:00;32.10;94.90
7576;DHT22;3829;50.798;4.358;2023-06-10T12:23:26;31.80;94.90
7576;DHT22;3829;50.798;4.358;2023-06-10T12:25:54;31.60;95.00
7576;DHT22;3829;50.798;4.358;2023-06-10T12:28:22;31.80;95.20
7576;DHT22;3829;50.798;4.358;2023-06-10T12:30:48;31.90;95.10
7576;DHT22;3829;50.798;4.358;2023-06-10T12:33:18;32.00;95.10
7576;DHT22;3829;50.798;4.358;2023-06-10T12:35:48;31.90;95.30
7576;DHT22;3829;50.798;4.358;2023-06-10T12:38:17;31.80;95.00
7576;DHT22;3829;50.798;4.358;2023-06-10T12:40:46;31.90;95.00
7576;DHT22;3829;50.798;4.358;2023-06-10T12:43:12;32.00;95.10
7576;DHT22;3829;50.798;4.358;2023-06-10T12:45:39;31.90;95.30
7576;DHT22;3829;50.798;4.358;2023-06-10T12:48:19;31.90;95.70
7576;DHT22;3829;50.798;4.358;2023-06-10T12:50:50;32.20;94.70
7576;DHT22;3829;50.798;4.358;2023-06-10T12:53:16;32.00;94.20
7576;DHT22;3829;50.798;4.358;2023-06-10T12:55:41;32.00;94.90
7576;DHT22;3829;50.798;4.358;2023-06-10T12:58:07;32.00;94.90
7576;DHT22;3829;50.798;4.358;2023-06-10T13:00:33;32.00;94.20
7576;DHT22;3829;50.798;4.358;2023-06-10T13:03:01;32.00;95.00
7576;DHT22;3829;50.798;4.358;2023-06-10T13:05:27;31.80;94.20
7576;DHT22;3829;50.798;4.358;2023-06-10T13:07:54;31.60;95.10
7576;DHT22;3829;50.798;4.358;2023-06-10T13:10:20;32.20;94.80
7576;DHT22;3829;50.798;4.358;2023-06-10T13:12:46;32.80;93.90
7576;DHT22;3829;50.798;4.358;2023-06-10T13:15:13;32.80;93.50
7576;DHT22;3829;50.798;4.358;2023-06-10T13:17:38;33.10;93.80
7576;DHT22;3829;50.798;4.358;2023-06-10T13:20:06;33.10;93.20
7576;DHT22;3829;50.798;4.358;2023-06-10T13:22:33;33.80;93.10
7576;DHT22;3829;50.798;4.358;2023-06-10T13:25:00;34.90;93.60
7576;DHT22;3829;50.798;4.358;2023-06-10T13:27:26;35.80;92.60
7576;DHT22;3829;50.798;4.358;2023-06-10T13:29:52;35.50;91.60
7576;DHT22;3829;50.798;4.358;2023-06-10T13:32:18;34.90;91.40
7576;DHT22;3829;50.798;4.358;2023-06-10T13:34:44;35.20;91.40
7576;DHT22;3829;50.798;4.358;2023-06-10T13:37:09;34.10;91.10
7576;DHT22;3829;50.798;4.358;2023-06-10T13:39:35;33.70;91.20
7576;DHT22;3829;50.798;4.358;2023-06-10T13:42:01;33.70;91.30
7576;DHT22;3829;50.798;4.358;2023-06-10T13:44:27;34.10;91.20
7576;DHT22;3829;50.798;4.358;2023-06-10T13:46:56;34.30;91.00
7576;DHT22;3829;50.798;4.358;2023-06-10T13:49:22;34.40;90.90
7576;DHT22;3829;50.798;4.358;2023-06-10T13:51:47;35.30;91.30
7576;DHT22;3829;50.798;4.358;2023-06-10T13:54:13;35.10;90.30
7576;DHT22;3829;50.798;4.358;2023-06-10T13:56:40;35.40;90.60
7576;DHT22;3829;50.798;4.358;2023-06-10T13:59:06;35.40;90.00
7576;DHT22;3829;50.798;4.358;2023-06-10T14:01:32;35.00;88.60
7576;DHT22;3829;50.798;4.358;2023-06-10T14:03:57;35.40;89.40
7576;DHT22;3829;50.798;4.358;2023-06-10T14:06:23;35.50;87.90
7576;DHT22;3829;50.798;4.358;2023-06-10T14:08:49;36.00;86.90
7576;DHT22;3829;50.798;4.358;2023-06-10T14:11:14;34.80;87.10
7576;DHT22;3829;50.798;4.358;2023-06-10T14:13:40;35.40;87.60
7576;DHT22;3829;50.798;4.358;2023-06-10T14:16:06;35.40;86.70
7576;DHT22;3829;50.798;4.358;2023-06-10T14:18:31;35.20;86.40
7576;DHT22;3829;50.798;4.358;2023-06-10T14:20:57;34.90;85.50
7576;DHT22;3829;50.798;4.358;2023-06-10T14:23:22;35.00;84.90
7576;DHT22;3829;50.798;4.358;2023-06-10T14:25:49;36.00;86.50
7576;DHT22;3829;50.798;4.358;2023-06-10T14:28:15;37.30;85.60
7576;DHT22;3829;50.798;4.358;2023-06-10T14:30:41;37.30;84.20
7576;DHT22;3829;50.798;4.358;2023-06-10T14:33:06;37.10;83.40
7576;DHT22;3829;50.798;4.358;2023-06-10T14:35:32;36.70;82.60
7576;DHT22;3829;50.798;4.358;2023-06-10T14:37:57;35.80;83.50
7576;DHT22;3829;50.798;4.358;2023-06-10T14:40:23;35.90;83.80
7576;DHT22;3829;50.798;4.358;2023-06-10T14:42:50;36.30;82.70
7576;DHT22;3829;50.798;4.358;2023-06-10T14:45:15;36.40;82.90
7576;DHT22;3829;50.798;4.358;2023-06-10T14:47:41;37.20;83.10
7576;DHT22;3829;50.798;4.358;2023-06-10T14:50:07;37.60;82.80
7576;DHT22;3829;50.798;4.358;2023-06-10T14:52:33;38.40;82.10
7576;DHT22;3829;50.798;4.358;2023-06-10T14:54:58;37.50;80.20
7576;DHT22;3829;50.798;4.358;2023-06-10T14:57:24;36.40;80.30
7576;DHT22;3829;50.798;4.358;2023-06-10T14:59:49;36.00;80.10
7576;DHT22;3829;50.798;4.358;2023-06-10T15:02:15;36.20;80.60
7576;DHT22;3829;50.798;4.358;2023-06-10T15:04:41;36.70;80.50
7576;DHT22;3829;50.798;4.358;2023-06-10T15:07:07;37.60;80.00
7576;DHT22;3829;50.798;4.358;2023-06-10T15:09:32;37.80;78.90
7576;DHT22;3829;50.798;4.358;2023-06-10T15:11:58;38.00;78.20
7576;DHT22;3829;50.798;4.358;2023-06-10T15:14:25;37.90;80.10
7576;DHT22;3829;50.798;4.358;2023-06-10T15:16:51;38.80;77.70
7576;DHT22;3829;50.798;4.358;2023-06-10T15:19:16;39.30;77.20
7576;DHT22;3829;50.798;4.358;2023-06-10T15:21:42;39.80;77.60
7576;DHT22;3829;50.798;4.358;2023-06-10T15:24:08;38.80;75.70
7576;DHT22;3829;50.798;4.358;2023-06-10T15:26:33;37.90;76.90
7576;DHT22;3829;50.798;4.358;2023-06-10T15:28:59;38.50;77.20
7576;DHT22;3829;50.798;4.358;2023-06-10T15:31:29;37.70;76.70
7576;DHT22;3829;50.798;4.358;2023-06-10T15:33:55;37.50;76.80
7576;DHT22;3829;50.798;4.358;2023-06-10T15:36:21;37.20;76.30
7576;DHT22;3829;50.798;4.358;2023-06-10T15:38:47;36.70;76.20
7576;DHT22;3829;50.798;4.358;2023-06-10T15:41:13;36.80;77.00
7576;DHT22;3829;50.798;4.358;2023-06-10T15:43:38;36.90;77.00
7576;DHT22;3829;50.798;4.358;2023-06-10T15:46:05;35.90;78.10
7576;DHT22;3829;50.798;4.358;2023-06-10T15:48:30;36.70;77.50
7576;DHT22;3829;50.798;4.358;2023-06-10T15:50:56;36.80;77.50
7576;DHT22;3829;50.798;4.358;2023-06-10T15:53:21;37.10;76.60
7576;DHT22;3829;50.798;4.358;2023-06-10T15:55:47;36.90;77.00
7576;DHT22;3829;50.798;4.358;2023-06-10T15:58:13;37.30;77.40
7576;DHT22;3829;50.798;4.358;2023-06-10T16:00:38;38.10;76.90